sensor_id;sensor_type;location;lat;lon;timestamp;P1;durP1;ratioP1;P2;durP2;ratioP2
54271;SDS011;40184;53.362;5.216;2023-02-08T00:01:19;28.35;;;20.25;;
54271;SDS011;40184;53.362;5.216;2023-02-08T00:03:46;25.63;;;19.40;;
54271;SDS011;40184;53.362;5.216;2023-02-08T00:06:13;27.98;;;20.27;;
54271;SDS011;40184;53.362;5.216;2023-02-08T00:08:39;25.70;;;18.70;;
54271;SDS011;40184;53.362;5.216;2023-02-08T00:11:06;25.20;;;19.73;;
54271;SDS011;40184;53.362;5.216;2023-02-08T00:13:34;25.38;;;18.30;;
54271;SDS011;40184;53.362;5.216;2023-02-08T00:16:01;27.63;;;18.52;;
54271;SDS011;40184;53.362;5.216;2023-02-08T00:18:27;25.35;;;18.52;;
54271;SDS011;40184;53.362;5.216;2023-02-08T00:20:52;26.08;;;18.55;;
54271;SDS011;40184;53.362;5.216;2023-02-08T00:23:20;25.40;;;18.38;;
54271;SDS011;40184;53.362;5.216;2023-02-08T00:25:45;27.02;;;18.75;;
54271;SDS011;40184;53.362;5.216;2023-02-08T00:28:13;23.60;;;18.70;;
54271;SDS011;40184;53.362;5.216;2023-02-08T00:30:40;27.80;;;19.13;;
54271;SDS011;40184;53.362;5.216;2023-02-08T00:33:06;24.23;;;18.38;;
54271;SDS011;40184;53.362;5.216;2023-02-08T00:35:32;26.70;;;19.77;;
54271;SDS011;40184;53.362;5.216;2023-02-08T00:37:58;28.17;;;19.92;;
54271;SDS011;40184;53.362;5.216;2023-02-08T00:40:24;24.48;;;18.95;;
54271;SDS011;40184;53.362;5.216;2023-02-08T00:42:50;28.95;;;19.42;;
54271;SDS011;40184;53.362;5.216;2023-02-08T00:45:16;22.92;;;19.15;;
54271;SDS011;40184;53.362;5.216;2023-02-08T00:47:42;27.83;;;19.42;;
54271;SDS011;40184;53.362;5.216;2023-02-08T00:50:08;27.52;;;19.52;;
54271;SDS011;40184;53.362;5.216;2023-02-08T00:52:35;29.02;;;19.58;;
54271;SDS011;40184;53.362;5.216;2023-02-08T00:55:01;25.38;;;19.75;;
54271;SDS011;40184;53.362;5.216;2023-02-08T00:57:27;26.15;;;19.63;;
54271;SDS011;40184;53.362;5.216;2023-02-08T00:59:52;23.77;;;18.90;;
54271;SDS011;40184;53.362;5.216;2023-02-08T01:02:18;25.58;;;19.52;;
54271;SDS011;40184;53.362;5.216;2023-02-08T01:04:44;24.13;;;19.83;;
54271;SDS011;40184;53.362;5.216;2023-02-08T01:07:09;30.40;;;20.75;;
54271;SDS011;40184;53.362;5.216;2023-02-08T01:09:35;27.13;;;20.75;;
54271;SDS011;40184;53.362;5.216;2023-02-08T01:12:01;28.63;;;20.92;;
54271;SDS011;40184;53.362;5.216;2023-02-08T01:14:27;29.20;;;21.25;;
54271;SDS011;40184;53.362;5.216;2023-02-08T01:16:53;30.20;;;20.73;;
54271;SDS011;40184;53.362;5.216;2023-02-08T01:19:19;29.23;;;21.58;;
54271;SDS011;40184;53.362;5.216;2023-02-08T01:21:44;27.52;;;21.05;;
54271;SDS011;40184;53.362;5.216;2023-02-08T01:24:13;30.67;;;20.92;;
54271;SDS011;40184;53.362;5.216;2023-02-08T01:26:38;30.70;;;23.38;;
54271;SDS011;40184;53.362;5.216;2023-02-08T01:29:04;31.98;;;22.30;;
54271;SDS011;40184;53.362;5.216;2023-02-08T01:31:34;32.40;;;21.33;;
54271;SDS011;40184;53.362;5.216;2023-02-08T01:34:02;35.10;;;22.00;;
54271;SDS011;40184;53.362;5.216;2023-02-08T01:36:28;33.65;;;23.40;;
54271;SDS011;40184;53.362;5.216;2023-02-08T01:38:56;30.25;;;21.70;;
54271;SDS011;40184;53.362;5.216;2023-02-08T01:41:26;27.08;;;21.13;;
54271;SDS011;40184;53.362;5.216;2023-02-08T01:46:27;29.65;;;21.95;;
54271;SDS011;40184;53.362;5.216;2023-02-08T01:48:53;28.48;;;22.38;;
54271;SDS011;40184;53.362;5.216;2023-02-08T01:51:26;27.75;;;22.48;;
54271;SDS011;40184;53.362;5.216;2023-02-08T01:53:55;29.02;;;23.38;;
54271;SDS011;40184;53.362;5.216;2023-02-08T01:56:24;31.15;;;22.63;;
54271;SDS011;40184;53.362;5.216;2023-02-08T01:58:54;32.30;;;24.63;;
54271;SDS011;40184;53.362;5.216;2023-02-08T02:01:24;34.72;;;25.08;;
54271;SDS011;40184;53.362;5.216;2023-02-08T02:03:53;28.30;;;23.45;;
54271;SDS011;40184;53.362;5.216;2023-02-08T02:06:23;30.45;;;22.90;;
54271;SDS011;40184;53.362;5.216;2023-02-08T02:08:56;29.60;;;23.45;;
54271;SDS011;40184;53.362;5.216;2023-02-08T02:11:27;28.30;;;21.95;;
54271;SDS011;40184;53.362;5.216;2023-02-08T02:13:53;32.03;;;23.15;;
54271;SDS011;40184;53.362;5.216;2023-02-08T02:16:19;28.58;;;22.17;;
54271;SDS011;40184;53.362;5.216;2023-02-08T02:18:45;29.30;;;23.02;;
54271;SDS011;40184;53.362;5.216;2023-02-08T02:24:09;28.20;;;20.85;;
54271;SDS011;40184;53.362;5.216;2023-02-08T02:35:03;27.90;;;21.55;;
54271;SDS011;40184;53.362;5.216;2023-02-08T02:37:56;29.63;;;22.40;;
54271;SDS011;40184;53.362;5.216;2023-02-08T02:43:20;27.98;;;22.05;;
54271;SDS011;40184;53.362;5.216;2023-02-08T02:46:08;27.92;;;22.20;;
54271;SDS011;40184;53.362;5.216;2023-02-08T02:48:52;29.85;;;21.90;;
54271;SDS011;40184;53.362;5.216;2023-02-08T02:51:26;26.30;;;19.88;;
54271;SDS011;40184;53.362;5.216;2023-02-08T02:56:33;29.63;;;21.73;;
54271;SDS011;40184;53.362;5.216;2023-02-08T02:59:09;27.13;;;22.52;;
54271;SDS011;40184;53.362;5.216;2023-02-08T03:01:38;30.17;;;22.02;;
54271;SDS011;40184;53.362;5.216;2023-02-08T03:04:11;25.90;;;21.65;;
54271;SDS011;40184;53.362;5.216;2023-02-08T03:20:14;33.33;;;24.15;;
54271;SDS011;40184;53.362;5.216;2023-02-08T03:23:00;28.30;;;22.58;;
54271;SDS011;40184;53.362;5.216;2023-02-08T03:28:10;34.70;;;24.23;;
54271;SDS011;40184;53.362;5.216;2023-02-08T03:38:49;33.20;;;23.15;;
54271;SDS011;40184;53.362;5.216;2023-02-08T03:41:25;27.70;;;21.92;;
54271;SDS011;40184;53.362;5.216;2023-02-08T03:43:58;30.92;;;23.98;;
54271;SDS011;40184;53.362;5.216;2023-02-08T03:46:32;28.08;;;22.83;;
54271;SDS011;40184;53.362;5.216;2023-02-08T03:49:09;27.60;;;21.50;;
54271;SDS011;40184;53.362;5.216;2023-02-08T03:51:41;30.55;;;24.60;;
54271;SDS011;40184;53.362;5.216;2023-02-08T03:54:18;33.35;;;25.98;;
54271;SDS011;40184;53.362;5.216;2023-02-08T03:56:51;30.52;;;25.35;;
54271;SDS011;40184;53.362;5.216;2023-02-08T03:59:28;31.80;;;24.80;;
54271;SDS011;40184;53.362;5.216;2023-02-08T04:01:58;28.45;;;22.88;;
54271;SDS011;40184;53.362;5.216;2023-02-08T04:04:28;30.40;;;23.90;;
54271;SDS011;40184;53.362;5.216;2023-02-08T04:06:58;33.07;;;26.00;;
54271;SDS011;40184;53.362;5.216;2023-02-08T04:09:24;31.13;;;24.88;;
54271;SDS011;40184;53.362;5.216;2023-02-08T04:11:50;29.27;;;23.77;;
54271;SDS011;40184;53.362;5.216;2023-02-08T04:14:16;28.15;;;24.40;;
54271;SDS011;40184;53.362;5.216;2023-02-08T04:16:41;28.33;;;24.13;;
54271;SDS011;40184;53.362;5.216;2023-02-08T04:19:07;31.88;;;24.75;;
54271;SDS011;40184;53.362;5.216;2023-02-08T04:21:33;33.00;;;24.08;;
54271;SDS011;40184;53.362;5.216;2023-02-08T04:23:59;30.73;;;24.65;;
54271;SDS011;40184;53.362;5.216;2023-02-08T04:26:25;34.45;;;26.65;;
54271;SDS011;40184;53.362;5.216;2023-02-08T04:28:50;30.02;;;25.73;;
54271;SDS011;40184;53.362;5.216;2023-02-08T04:31:16;30.52;;;25.85;;
54271;SDS011;40184;53.362;5.216;2023-02-08T04:33:42;27.15;;;23.83;;
54271;SDS011;40184;53.362;5.216;2023-02-08T04:36:07;28.77;;;23.90;;
54271;SDS011;40184;53.362;5.216;2023-02-08T04:38:33;27.40;;;24.60;;
54271;SDS011;40184;53.362;5.216;2023-02-08T04:40:59;29.73;;;24.27;;
54271;SDS011;40184;53.362;5.216;2023-02-08T04:43:25;26.45;;;21.92;;
54271;SDS011;40184;53.362;5.216;2023-02-08T04:45:51;29.80;;;22.77;;
54271;SDS011;40184;53.362;5.216;2023-02-08T04:48:17;26.65;;;22.98;;
54271;SDS011;40184;53.362;5.216;2023-02-08T04:50:43;26.42;;;22.33;;
54271;SDS011;40184;53.362;5.216;2023-02-08T04:53:09;26.10;;;21.42;;
54271;SDS011;40184;53.362;5.216;2023-02-08T04:55:35;24.98;;;22.48;;
54271;SDS011;40184;53.362;5.216;2023-02-08T04:58:00;23.17;;;20.85;;
54271;SDS011;40184;53.362;5.216;2023-02-08T05:00:26;25.85;;;22.90;;
54271;SDS011;40184;53.362;5.216;2023-02-08T05:02:53;26.55;;;22.55;;
54271;SDS011;40184;53.362;5.216;2023-02-08T05:05:23;28.50;;;23.70;;
54271;SDS011;40184;53.362;5.216;2023-02-08T05:07:50;24.88;;;22.23;;
54271;SDS011;40184;53.362;5.216;2023-02-08T05:10:16;26.25;;;22.42;;
54271;SDS011;40184;53.362;5.216;2023-02-08T05:12:42;26.13;;;23.23;;
54271;SDS011;40184;53.362;5.216;2023-02-08T05:15:07;30.27;;;23.23;;
54271;SDS011;40184;53.362;5.216;2023-02-08T05:17:34;25.23;;;22.35;;
54271;SDS011;40184;53.362;5.216;2023-02-08T05:20:00;25.15;;;22.45;;
54271;SDS011;40184;53.362;5.216;2023-02-08T05:22:27;25.75;;;23.13;;
54271;SDS011;40184;53.362;5.216;2023-02-08T05:24:53;25.58;;;22.88;;
54271;SDS011;40184;53.362;5.216;2023-02-08T05:27:19;25.05;;;22.40;;
54271;SDS011;40184;53.362;5.216;2023-02-08T05:29:45;25.50;;;22.90;;
54271;SDS011;40184;53.362;5.216;2023-02-08T05:32:10;24.98;;;22.48;;
54271;SDS011;40184;53.362;5.216;2023-02-08T05:34:36;25.23;;;22.58;;
54271;SDS011;40184;53.362;5.216;2023-02-08T05:37:03;27.20;;;23.23;;
54271;SDS011;40184;53.362;5.216;2023-02-08T05:39:29;27.30;;;22.88;;
54271;SDS011;40184;53.362;5.216;2023-02-08T05:41:54;25.63;;;22.92;;
54271;SDS011;40184;53.362;5.216;2023-02-08T05:44:20;25.25;;;22.55;;
54271;SDS011;40184;53.362;5.216;2023-02-08T05:46:46;25.65;;;22.88;;
54271;SDS011;40184;53.362;5.216;2023-02-08T05:49:12;28.60;;;22.73;;
54271;SDS011;40184;53.362;5.216;2023-02-08T05:51:38;26.83;;;23.90;;
54271;SDS011;40184;53.362;5.216;2023-02-08T05:54:03;25.58;;;22.85;;
54271;SDS011;40184;53.362;5.216;2023-02-08T05:56:29;27.63;;;24.70;;
54271;SDS011;40184;53.362;5.216;2023-02-08T05:58:55;26.73;;;23.83;;
54271;SDS011;40184;53.362;5.216;2023-02-08T06:01:24;27.42;;;24.50;;
54271;SDS011;40184;53.362;5.216;2023-02-08T06:03:50;27.00;;;24.05;;
54271;SDS011;40184;53.362;5.216;2023-02-08T06:06:15;27.52;;;24.63;;
54271;SDS011;40184;53.362;5.216;2023-02-08T06:08:41;27.20;;;24.27;;
54271;SDS011;40184;53.362;5.216;2023-02-08T06:11:07;26.92;;;23.40;;
54271;SDS011;40184;53.362;5.216;2023-02-08T06:13:32;28.25;;;24.92;;
54271;SDS011;40184;53.362;5.216;2023-02-08T06:15:58;27.05;;;24.20;;
54271;SDS011;40184;53.362;5.216;2023-02-08T06:18:24;28.27;;;24.42;;
54271;SDS011;40184;53.362;5.216;2023-02-08T06:20:52;29.25;;;26.05;;
54271;SDS011;40184;53.362;5.216;2023-02-08T06:23:18;28.55;;;23.73;;
54271;SDS011;40184;53.362;5.216;2023-02-08T06:25:44;26.50;;;23.67;;
54271;SDS011;40184;53.362;5.216;2023-02-08T06:28:10;27.75;;;24.75;;
54271;SDS011;40184;53.362;5.216;2023-02-08T06:30:36;27.90;;;24.90;;
54271;SDS011;40184;53.362;5.216;2023-02-08T06:33:02;28.27;;;24.15;;
54271;SDS011;40184;53.362;5.216;2023-02-08T06:35:29;28.60;;;23.55;;
54271;SDS011;40184;53.362;5.216;2023-02-08T06:37:55;25.98;;;23.17;;
54271;SDS011;40184;53.362;5.216;2023-02-08T06:40:21;26.25;;;23.33;;
54271;SDS011;40184;53.362;5.216;2023-02-08T06:42:47;25.63;;;22.17;;
54271;SDS011;40184;53.362;5.216;2023-02-08T06:45:12;27.20;;;22.40;;
54271;SDS011;40184;53.362;5.216;2023-02-08T06:47:38;27.35;;;23.10;;
54271;SDS011;40184;53.362;5.216;2023-02-08T06:50:04;27.17;;;24.27;;
54271;SDS011;40184;53.362;5.216;2023-02-08T06:52:30;24.70;;;22.10;;
54271;SDS011;40184;53.362;5.216;2023-02-08T06:54:56;26.90;;;22.13;;
54271;SDS011;40184;53.362;5.216;2023-02-08T06:57:21;25.42;;;22.85;;
54271;SDS011;40184;53.362;5.216;2023-02-08T06:59:48;25.33;;;22.73;;
54271;SDS011;40184;53.362;5.216;2023-02-08T07:02:17;25.13;;;21.70;;
54271;SDS011;40184;53.362;5.216;2023-02-08T07:04:44;27.33;;;22.27;;
54271;SDS011;40184;53.362;5.216;2023-02-08T07:07:10;25.02;;;22.05;;
54271;SDS011;40184;53.362;5.216;2023-02-08T07:09:37;24.35;;;21.63;;
54271;SDS011;40184;53.362;5.216;2023-02-08T07:12:03;23.55;;;21.17;;
54271;SDS011;40184;53.362;5.216;2023-02-08T07:14:32;23.85;;;21.35;;
54271;SDS011;40184;53.362;5.216;2023-02-08T07:17:00;24.35;;;21.88;;
54271;SDS011;40184;53.362;5.216;2023-02-08T07:19:27;24.88;;;22.27;;
54271;SDS011;40184;53.362;5.216;2023-02-08T07:21:53;25.33;;;22.15;;
54271;SDS011;40184;53.362;5.216;2023-02-08T07:24:19;25.08;;;22.38;;
54271;SDS011;40184;53.362;5.216;2023-02-08T07:26:45;26.15;;;22.27;;
54271;SDS011;40184;53.362;5.216;2023-02-08T07:29:11;25.77;;;22.67;;
54271;SDS011;40184;53.362;5.216;2023-02-08T07:31:37;25.83;;;23.05;;
54271;SDS011;40184;53.362;5.216;2023-02-08T07:34:02;24.52;;;21.25;;
54271;SDS011;40184;53.362;5.216;2023-02-08T07:36:28;25.15;;;20.73;;
54271;SDS011;40184;53.362;5.216;2023-02-08T07:38:54;26.10;;;22.05;;
54271;SDS011;40184;53.362;5.216;2023-02-08T07:41:19;25.70;;;21.80;;
54271;SDS011;40184;53.362;5.216;2023-02-08T07:43:45;25.48;;;21.08;;
54271;SDS011;40184;53.362;5.216;2023-02-08T07:46:12;24.25;;;21.70;;
54271;SDS011;40184;53.362;5.216;2023-02-08T07:48:39;24.35;;;21.80;;
54271;SDS011;40184;53.362;5.216;2023-02-08T07:51:05;25.75;;;23.00;;
54271;SDS011;40184;53.362;5.216;2023-02-08T07:53:31;29.13;;;21.35;;
54271;SDS011;40184;53.362;5.216;2023-02-08T07:55:57;24.25;;;21.45;;
54271;SDS011;40184;53.362;5.216;2023-02-08T07:58:23;24.15;;;21.15;;
54271;SDS011;40184;53.362;5.216;2023-02-08T08:00:49;24.83;;;22.15;;
54271;SDS011;40184;53.362;5.216;2023-02-08T08:03:15;26.98;;;21.58;;
54271;SDS011;40184;53.362;5.216;2023-02-08T08:05:41;25.45;;;21.20;;
54271;SDS011;40184;53.362;5.216;2023-02-08T08:08:09;22.55;;;20.17;;
54271;SDS011;40184;53.362;5.216;2023-02-08T08:10:36;22.95;;;20.02;;
54271;SDS011;40184;53.362;5.216;2023-02-08T08:13:02;25.85;;;20.25;;
54271;SDS011;40184;53.362;5.216;2023-02-08T08:15:29;21.92;;;19.45;;
54271;SDS011;40184;53.362;5.216;2023-02-08T08:17:55;28.83;;;21.00;;
54271;SDS011;40184;53.362;5.216;2023-02-08T08:20:20;22.73;;;19.42;;
54271;SDS011;40184;53.362;5.216;2023-02-08T08:22:46;22.83;;;19.35;;
54271;SDS011;40184;53.362;5.216;2023-02-08T08:25:12;22.02;;;19.55;;
54271;SDS011;40184;53.362;5.216;2023-02-08T08:27:38;22.13;;;18.77;;
54271;SDS011;40184;53.362;5.216;2023-02-08T08:30:07;20.90;;;18.70;;
54271;SDS011;40184;53.362;5.216;2023-02-08T08:32:36;21.48;;;17.98;;
54271;SDS011;40184;53.362;5.216;2023-02-08T08:35:02;20.55;;;18.20;;
54271;SDS011;40184;53.362;5.216;2023-02-08T08:37:28;20.98;;;17.60;;
54271;SDS011;40184;53.362;5.216;2023-02-08T08:39:54;20.08;;;17.50;;
54271;SDS011;40184;53.362;5.216;2023-02-08T08:42:20;20.15;;;17.23;;
54271;SDS011;40184;53.362;5.216;2023-02-08T08:44:45;20.27;;;18.08;;
54271;SDS011;40184;53.362;5.216;2023-02-08T08:47:11;22.98;;;17.33;;
54271;SDS011;40184;53.362;5.216;2023-02-08T08:49:37;20.75;;;17.73;;
54271;SDS011;40184;53.362;5.216;2023-02-08T08:52:03;18.52;;;16.17;;
54271;SDS011;40184;53.362;5.216;2023-02-08T08:54:31;22.77;;;16.88;;
54271;SDS011;40184;53.362;5.216;2023-02-08T08:56:58;22.02;;;18.00;;
54271;SDS011;40184;53.362;5.216;2023-02-08T08:59:23;23.48;;;18.65;;
54271;SDS011;40184;53.362;5.216;2023-02-08T09:01:49;22.98;;;17.17;;
54271;SDS011;40184;53.362;5.216;2023-02-08T09:04:15;18.63;;;15.57;;
54271;SDS011;40184;53.362;5.216;2023-02-08T09:06:40;20.15;;;16.35;;
54271;SDS011;40184;53.362;5.216;2023-02-08T09:09:06;17.92;;;15.93;;
54271;SDS011;40184;53.362;5.216;2023-02-08T09:11:32;19.77;;;17.00;;
54271;SDS011;40184;53.362;5.216;2023-02-08T09:13:58;18.70;;;15.32;;
54271;SDS011;40184;53.362;5.216;2023-02-08T09:16:27;20.33;;;16.20;;
54271;SDS011;40184;53.362;5.216;2023-02-08T09:18:53;16.45;;;14.40;;
54271;SDS011;40184;53.362;5.216;2023-02-08T09:21:20;16.92;;;14.73;;
54271;SDS011;40184;53.362;5.216;2023-02-08T09:23:49;20.17;;;15.40;;
54271;SDS011;40184;53.362;5.216;2023-02-08T09:26:16;16.98;;;14.63;;
54271;SDS011;40184;53.362;5.216;2023-02-08T09:28:43;17.92;;;15.45;;
54271;SDS011;40184;53.362;5.216;2023-02-08T09:31:22;17.55;;;14.93;;
54271;SDS011;40184;53.362;5.216;2023-02-08T09:33:51;18.08;;;15.45;;
54271;SDS011;40184;53.362;5.216;2023-02-08T09:36:19;19.00;;;14.88;;
54271;SDS011;40184;53.362;5.216;2023-02-08T09:38:46;17.38;;;14.82;;
54271;SDS011;40184;53.362;5.216;2023-02-08T09:55:43;18.27;;;14.55;;
54271;SDS011;40184;53.362;5.216;2023-02-08T10:01:06;18.20;;;14.05;;
54271;SDS011;40184;53.362;5.216;2023-02-08T10:03:42;17.90;;;14.40;;
54271;SDS011;40184;53.362;5.216;2023-02-08T10:06:13;24.00;;;16.00;;
54271;SDS011;40184;53.362;5.216;2023-02-08T10:08:41;26.38;;;15.38;;
54271;SDS011;40184;53.362;5.216;2023-02-08T10:19:22;18.85;;;14.27;;
54271;SDS011;40184;53.362;5.216;2023-02-08T10:22:19;17.95;;;15.60;;
54271;SDS011;40184;53.362;5.216;2023-02-08T10:24:59;20.52;;;14.90;;
54271;SDS011;40184;53.362;5.216;2023-02-08T10:32:59;17.10;;;15.20;;
54271;SDS011;40184;53.362;5.216;2023-02-08T10:35:31;17.45;;;15.60;;
54271;SDS011;40184;53.362;5.216;2023-02-08T10:38:22;17.55;;;14.32;;
54271;SDS011;40184;53.362;5.216;2023-02-08T10:40:50;15.63;;;13.95;;
54271;SDS011;40184;53.362;5.216;2023-02-08T10:48:33;17.00;;;14.40;;
54271;SDS011;40184;53.362;5.216;2023-02-08T10:51:12;16.92;;;14.38;;
54271;SDS011;40184;53.362;5.216;2023-02-08T10:53:40;15.00;;;13.40;;
54271;SDS011;40184;53.362;5.216;2023-02-08T10:56:06;21.25;;;13.27;;
54271;SDS011;40184;53.362;5.216;2023-02-08T10:58:45;16.88;;;13.05;;
54271;SDS011;40184;53.362;5.216;2023-02-08T11:01:11;17.55;;;13.40;;
54271;SDS011;40184;53.362;5.216;2023-02-08T11:03:37;16.20;;;13.13;;
54271;SDS011;40184;53.362;5.216;2023-02-08T11:06:03;14.63;;;12.90;;
54271;SDS011;40184;53.362;5.216;2023-02-08T11:08:30;14.30;;;12.10;;
54271;SDS011;40184;53.362;5.216;2023-02-08T11:10:59;14.25;;;12.05;;
54271;SDS011;40184;53.362;5.216;2023-02-08T11:13:35;15.23;;;10.98;;
54271;SDS011;40184;53.362;5.216;2023-02-08T11:16:37;15.65;;;11.88;;
54271;SDS011;40184;53.362;5.216;2023-02-08T11:18:57;13.60;;;10.63;;
54271;SDS011;40184;53.362;5.216;2023-02-08T11:21:33;13.85;;;11.10;;
54271;SDS011;40184;53.362;5.216;2023-02-08T11:24:03;14.00;;;10.40;;
54271;SDS011;40184;53.362;5.216;2023-02-08T11:26:40;12.85;;;9.60;;
54271;SDS011;40184;53.362;5.216;2023-02-08T11:31:38;11.23;;;9.77;;
54271;SDS011;40184;53.362;5.216;2023-02-08T11:34:24;14.80;;;8.85;;
54271;SDS011;40184;53.362;5.216;2023-02-08T11:36:51;16.90;;;10.57;;
54271;SDS011;40184;53.362;5.216;2023-02-08T11:42:05;12.60;;;9.52;;
54271;SDS011;40184;53.362;5.216;2023-02-08T11:44:35;13.90;;;8.70;;
54271;SDS011;40184;53.362;5.216;2023-02-08T11:47:06;11.60;;;9.73;;
54271;SDS011;40184;53.362;5.216;2023-02-08T11:49:36;13.30;;;9.48;;
54271;SDS011;40184;53.362;5.216;2023-02-08T11:52:04;10.40;;;8.85;;
54271;SDS011;40184;53.362;5.216;2023-02-08T11:54:39;10.75;;;9.40;;
54271;SDS011;40184;53.362;5.216;2023-02-08T11:57:16;10.05;;;8.25;;
54271;SDS011;40184;53.362;5.216;2023-02-08T11:59:44;12.55;;;9.07;;
54271;SDS011;40184;53.362;5.216;2023-02-08T12:02:34;10.80;;;8.70;;
54271;SDS011;40184;53.362;5.216;2023-02-08T12:05:02;9.63;;;8.48;;
54271;SDS011;40184;53.362;5.216;2023-02-08T12:07:37;9.13;;;8.23;;
54271;SDS011;40184;53.362;5.216;2023-02-08T12:20:46;11.85;;;9.13;;
54271;SDS011;40184;53.362;5.216;2023-02-08T12:28:16;19.50;;;10.00;;
54271;SDS011;40184;53.362;5.216;2023-02-08T12:34:13;12.43;;;10.27;;
54271;SDS011;40184;53.362;5.216;2023-02-08T12:43:56;14.55;;;11.27;;
54271;SDS011;40184;53.362;5.216;2023-02-08T12:46:10;13.63;;;11.05;;
54271;SDS011;40184;53.362;5.216;2023-02-08T12:57:03;14.70;;;11.63;;
54271;SDS011;40184;53.362;5.216;2023-02-08T12:59:33;11.73;;;10.13;;
54271;SDS011;40184;53.362;5.216;2023-02-08T13:02:08;13.40;;;11.43;;
54271;SDS011;40184;53.362;5.216;2023-02-08T13:04:46;11.98;;;10.20;;
54271;SDS011;40184;53.362;5.216;2023-02-08T13:07:20;13.70;;;10.45;;
54271;SDS011;40184;53.362;5.216;2023-02-08T13:10:52;13.13;;;10.88;;
54271;SDS011;40184;53.362;5.216;2023-02-08T13:18:44;11.82;;;9.88;;
54271;SDS011;40184;53.362;5.216;2023-02-08T13:21:29;12.85;;;10.70;;
54271;SDS011;40184;53.362;5.216;2023-02-08T13:24:02;18.35;;;12.23;;
54271;SDS011;40184;53.362;5.216;2023-02-08T13:26:32;13.35;;;10.32;;
54271;SDS011;40184;53.362;5.216;2023-02-08T13:28:59;13.88;;;11.15;;
54271;SDS011;40184;53.362;5.216;2023-02-08T13:31:49;14.65;;;12.00;;
54271;SDS011;40184;53.362;5.216;2023-02-08T13:36:59;14.38;;;12.00;;
54271;SDS011;40184;53.362;5.216;2023-02-08T13:39:30;12.60;;;11.00;;
54271;SDS011;40184;53.362;5.216;2023-02-08T13:42:01;13.60;;;11.20;;
54271;SDS011;40184;53.362;5.216;2023-02-08T13:44:37;15.52;;;11.75;;
54271;SDS011;40184;53.362;5.216;2023-02-08T13:47:05;16.88;;;12.50;;
54271;SDS011;40184;53.362;5.216;2023-02-08T14:01:00;14.70;;;10.68;;
54271;SDS011;40184;53.362;5.216;2023-02-08T14:03:26;14.50;;;11.13;;
54271;SDS011;40184;53.362;5.216;2023-02-08T14:05:54;19.33;;;11.32;;
54271;SDS011;40184;53.362;5.216;2023-02-08T14:11:05;15.45;;;11.15;;
54271;SDS011;40184;53.362;5.216;2023-02-08T14:13:38;14.63;;;10.07;;
54271;SDS011;40184;53.362;5.216;2023-02-08T14:16:22;16.98;;;11.65;;
54271;SDS011;40184;53.362;5.216;2023-02-08T14:21:38;12.57;;;10.23;;
54271;SDS011;40184;53.362;5.216;2023-02-08T14:26:45;11.57;;;9.50;;
54271;SDS011;40184;53.362;5.216;2023-02-08T14:29:21;14.02;;;10.25;;
54271;SDS011;40184;53.362;5.216;2023-02-08T14:31:51;13.55;;;10.52;;
54271;SDS011;40184;53.362;5.216;2023-02-08T14:34:28;13.27;;;10.57;;
54271;SDS011;40184;53.362;5.216;2023-02-08T14:45:27;12.15;;;9.90;;
54271;SDS011;40184;53.362;5.216;2023-02-08T14:47:54;13.45;;;9.98;;
54271;SDS011;40184;53.362;5.216;2023-02-08T14:50:27;11.50;;;9.32;;
54271;SDS011;40184;53.362;5.216;2023-02-08T14:53:04;14.35;;;9.55;;
54271;SDS011;40184;53.362;5.216;2023-02-08T14:55:38;12.80;;;8.93;;
54271;SDS011;40184;53.362;5.216;2023-02-08T14:58:31;12.02;;;9.63;;
54271;SDS011;40184;53.362;5.216;2023-02-08T15:01:23;19.05;;;10.98;;
54271;SDS011;40184;53.362;5.216;2023-02-08T15:03:59;12.52;;;10.43;;
54271;SDS011;40184;53.362;5.216;2023-02-08T15:08:54;13.93;;;9.43;;
54271;SDS011;40184;53.362;5.216;2023-02-08T15:11:24;16.30;;;11.30;;
54271;SDS011;40184;53.362;5.216;2023-02-08T15:13:54;13.93;;;10.18;;
54271;SDS011;40184;53.362;5.216;2023-02-08T15:16:21;15.68;;;10.43;;
54271;SDS011;40184;53.362;5.216;2023-02-08T15:18:53;13.00;;;9.98;;
54271;SDS011;40184;53.362;5.216;2023-02-08T15:21:19;13.45;;;10.32;;
54271;SDS011;40184;53.362;5.216;2023-02-08T15:24:10;12.80;;;8.85;;
54271;SDS011;40184;53.362;5.216;2023-02-08T15:26:46;12.70;;;10.30;;
54271;SDS011;40184;53.362;5.216;2023-02-08T15:29:20;11.93;;;9.40;;
54271;SDS011;40184;53.362;5.216;2023-02-08T15:31:50;12.82;;;9.63;;
54271;SDS011;40184;53.362;5.216;2023-02-08T15:34:18;9.43;;;8.45;;
54271;SDS011;40184;53.362;5.216;2023-02-08T15:36:52;10.23;;;9.13;;
54271;SDS011;40184;53.362;5.216;2023-02-08T15:39:23;16.33;;;9.52;;
54271;SDS011;40184;53.362;5.216;2023-02-08T15:42:00;13.60;;;8.88;;
54271;SDS011;40184;53.362;5.216;2023-02-08T15:44:27;17.42;;;9.52;;
54271;SDS011;40184;53.362;5.216;2023-02-08T15:46:55;11.25;;;8.93;;
54271;SDS011;40184;53.362;5.216;2023-02-08T15:49:34;12.98;;;8.85;;
54271;SDS011;40184;53.362;5.216;2023-02-08T15:52:03;12.88;;;10.02;;
54271;SDS011;40184;53.362;5.216;2023-02-08T15:54:31;12.18;;;10.30;;
54271;SDS011;40184;53.362;5.216;2023-02-08T15:56:58;10.35;;;8.70;;
54271;SDS011;40184;53.362;5.216;2023-02-08T15:59:53;13.52;;;9.02;;
54271;SDS011;40184;53.362;5.216;2023-02-08T16:02:29;13.98;;;9.40;;
54271;SDS011;40184;53.362;5.216;2023-02-08T16:04:57;11.82;;;9.52;;
54271;SDS011;40184;53.362;5.216;2023-02-08T16:07:27;13.88;;;9.55;;
54271;SDS011;40184;53.362;5.216;2023-02-08T16:09:58;11.07;;;9.82;;
54271;SDS011;40184;53.362;5.216;2023-02-08T16:12:25;11.77;;;9.02;;
54271;SDS011;40184;53.362;5.216;2023-02-08T16:14:52;10.88;;;9.23;;
54271;SDS011;40184;53.362;5.216;2023-02-08T16:18:04;9.60;;;8.48;;
54271;SDS011;40184;53.362;5.216;2023-02-08T16:20:21;10.82;;;8.55;;
54271;SDS011;40184;53.362;5.216;2023-02-08T16:23:32;12.23;;;8.68;;
54271;SDS011;40184;53.362;5.216;2023-02-08T16:25:51;12.15;;;8.93;;
54271;SDS011;40184;53.362;5.216;2023-02-08T16:28:25;10.65;;;9.10;;
54271;SDS011;40184;53.362;5.216;2023-02-08T16:30:53;12.80;;;10.15;;
54271;SDS011;40184;53.362;5.216;2023-02-08T16:33:21;11.10;;;9.90;;
54271;SDS011;40184;53.362;5.216;2023-02-08T16:35:47;12.88;;;9.30;;
54271;SDS011;40184;53.362;5.216;2023-02-08T16:38:20;11.23;;;9.43;;
54271;SDS011;40184;53.362;5.216;2023-02-08T16:40:48;10.73;;;8.05;;
54271;SDS011;40184;53.362;5.216;2023-02-08T16:43:21;18.25;;;11.32;;
54271;SDS011;40184;53.362;5.216;2023-02-08T16:46:24;11.90;;;9.05;;
54271;SDS011;40184;53.362;5.216;2023-02-08T16:48:55;12.95;;;9.68;;
54271;SDS011;40184;53.362;5.216;2023-02-08T16:51:26;18.90;;;14.40;;
54271;SDS011;40184;53.362;5.216;2023-02-08T16:53:54;23.90;;;18.42;;
54271;SDS011;40184;53.362;5.216;2023-02-08T16:56:24;18.08;;;13.65;;
54271;SDS011;40184;53.362;5.216;2023-02-08T16:58:50;11.82;;;10.45;;
54271;SDS011;40184;53.362;5.216;2023-02-08T17:01:16;13.90;;;9.60;;
54271;SDS011;40184;53.362;5.216;2023-02-08T17:03:43;13.30;;;9.40;;
54271;SDS011;40184;53.362;5.216;2023-02-08T17:06:24;12.23;;;8.20;;
54271;SDS011;40184;53.362;5.216;2023-02-08T17:08:56;13.40;;;10.27;;
54271;SDS011;40184;53.362;5.216;2023-02-08T17:11:23;13.77;;;7.97;;
54271;SDS011;40184;53.362;5.216;2023-02-08T17:13:49;10.40;;;8.48;;
54271;SDS011;40184;53.362;5.216;2023-02-08T17:16:38;10.35;;;9.25;;